Time,TemperatureF,DewpointF,PressureIn,WindDirection,WindDirectionDegrees,WindSpeedMPH,WindSpeedGustMPH,Humidity,HourlyPrecipIn,Conditions,Clouds,dailyrainin,SolarRadiationWatts/m^2,SoftwareType,DateUTC
2013-10-07 00:01:00,56.8,27.3,29.59,NE,40,0.0,0.0,32,0.00,,,0.00,0,WeatherCatV1.02B3,2013-10-07 07:01:00,
2013-10-07 00:06:00,56.5,27.7,29.59,NE,40,0.0,1.0,33,0.00,,,0.00,0,WeatherCatV1.02B3,2013-10-07 07:06:00,
2013-10-07 00:11:00,56.2,28.2,29.59,NE,40,0.0,0.0,34,0.00,,,0.00,0,WeatherCatV1.02B3,2013-10-07 07:11:00,
2013-10-07 00:16:00,56.0,28.0,29.59,North,355,0.0,4.0,34,0.00,,,0.00,0,WeatherCatV1.02B3,2013-10-07 07:16:00,
2013-10-07 00:21:00,55.9,27.9,29.59,North,355,1.0,3.0,34,0.00,,,0.00,0,WeatherCatV1.02B3,2013-10-07 07:21:00,
2013-10-07 00:26:00,55.9,28.7,29.59,North,5,0.0,2.0,35,0.00,,,0.00,0,WeatherCatV1.02B3,2013-10-07 07:26:00,
2013-10-07 00:31:00,55.8,28.6,29.59,North,5,0.0,0.0,35,0.00,,,0.00,0,WeatherCatV1.02B3,2013-10-07 07:31:00,
2013-10-07 00:36:00,55.7,27.8,29.59,North,5,0.0,0.0,34,0.00,,,0.00,0,WeatherCatV1.02B3,2013-10-07 07:36:00,
2013-10-07 00:41:00,55.5,27.6,29.59,North,5,1.0,2.0,34,0.00,,,0.00,0,WeatherCatV1.02B3,2013-10-07 07:41:00,
2013-10-07 00:46:00,55.3,27.4,29.59,NNE,31,1.0,2.0,34,0.00,,,0.00,0,WeatherCatV1.02B3,2013-10-07 07:46:00,
2013-10-07 00:51:00,55.4,27.5,29.59,North,355,0.0,0.0,34,0.00,,,0.00,0,WeatherCatV1.02B3,2013-10-07 07:51:00,
2013-10-07 00:56:00,55.4,27.5,29.59,North,355,1.0,1.0,34,0.00,,,0.00,0,WeatherCatV1.02B3,2013-10-07 07:56:00,
2013-10-07 01:01:00,55.4,27.5,29.59,North,355,0.0,0.0,34,0.00,,,0.00,0,WeatherCatV1.02B3,2013-10-07 08:01:00,
2013-10-07 01:06:00,55.4,27.5,29.59,North,355,0.0,0.0,34,0.00,,,0.00,0,WeatherCatV1.02B3,2013-10-07 08:06:00,
2013-10-07 01:11:00,55.3,27.4,29.59,North,355,0.0,0.0,34,0.00,,,0.00,0,WeatherCatV1.02B3,2013-10-07 08:11:00,
2013-10-07 01:16:00,55.1,27.9,29.59,North,355,0.0,0.0,35,0.00,,,0.00,0,WeatherCatV1.02B3,2013-10-07 08:16:00,
2013-10-07 01:21:00,54.9,28.5,29.59,North,355,0.0,0.0,36,0.00,,,0.00,0,WeatherCatV1.02B3,2013-10-07 08:21:00,
2013-10-07 01:26:00,54.6,27.5,29.59,North,355,0.0,0.0,35,0.00,,,0.00,0,WeatherCatV1.02B3,2013-10-07 08:26:00,
2013-10-07 01:31:00,54.3,27.2,29.59,North,355,0.0,0.0,35,0.00,,,0.00,0,WeatherCatV1.02B3,2013-10-07 08:31:00,
2013-10-07 01:36:00,53.9,27.6,29.59,North,355,0.0,0.0,36,0.00,,,0.00,0,WeatherCatV1.02B3,2013-10-07 08:36:00,
2013-10-07 01:41:00,53.6,27.3,29.59,North,355,0.0,0.0,36,0.00,,,0.00,0,WeatherCatV1.02B3,2013-10-07 08:41:00,
2013-10-07 01:46:00,53.3,27.7,29.59,North,355,0.0,0.0,37,0.00,,,0.00,0,WeatherCatV1.02B3,2013-10-07 08:46:00,
2013-10-07 01:51:00,53.0,28.1,29.59,North,355,0.0,0.0,38,0.00,,,0.00,0,WeatherCatV1.02B3,2013-10-07 08:51:00,
2013-10-07 01:56:00,52.8,27.9,29.59,North,355,0.0,0.0,38,0.00,,,0.00,0,WeatherCatV1.02B3,2013-10-07 08:56:00,
2013-10-07 02:01:00,52.5,27.6,29.59,North,355,0.0,0.0,38,0.00,,,0.00,0,WeatherCatV1.02B3,2013-10-07 09:01:00,
2013-10-07 02:06:00,52.3,28.1,29.59,North,355,0.0,0.0,39,0.00,,,0.00,0,WeatherCatV1.02B3,2013-10-07 09:06:00,
2013-10-07 02:11:00,52.1,27.9,29.59,North,355,0.0,0.0,39,0.00,,,0.00,0,WeatherCatV1.02B3,2013-10-07 09:11:00,
2013-10-07 02:16:00,51.9,28.9,29.59,North,355,0.0,1.0,41,0.00,,,0.00,0,WeatherCatV1.02B3,2013-10-07 09:16:00,
2013-10-07 02:21:00,51.7,29.4,29.59,North,355,0.0,1.0,42,0.00,,,0.00,0,WeatherCatV1.02B3,2013-10-07 09:21:00,
2013-10-07 02:26:00,51.4,28.5,29.59,NE,55,1.0,1.0,41,0.00,,,0.00,0,WeatherCatV1.02B3,2013-10-07 09:26:00,
2013-10-07 02:31:00,51.5,28.0,29.59,ENE,60,0.0,1.0,40,0.00,,,0.00,0,WeatherCatV1.02B3,2013-10-07 09:31:00,
2013-10-07 02:36:00,51.6,28.1,29.59,ENE,60,0.0,0.0,40,0.00,,,0.00,0,WeatherCatV1.02B3,2013-10-07 09:36:00,
2013-10-07 02:41:00,51.6,28.1,29.59,ENE,60,0.0,0.0,40,0.00,,,0.00,0,WeatherCatV1.02B3,2013-10-07 09:41:00,
2013-10-07 02:46:00,51.6,27.5,29.59,ENE,60,0.0,0.0,39,0.00,,,0.00,0,WeatherCatV1.02B3,2013-10-07 09:46:00,
2013-10-07 02:51:00,51.5,27.4,29.59,ENE,60,0.0,0.0,39,0.00,,,0.00,0,WeatherCatV1.02B3,2013-10-07 09:51:00,
2013-10-07 02:56:00,51.5,28.6,29.59,ENE,60,0.0,1.0,41,0.00,,,0.00,0,WeatherCatV1.02B3,2013-10-07 09:56:00,
2013-10-07 03:01:00,51.4,28.5,29.59,ENE,60,1.0,1.0,41,0.00,,,0.00,0,WeatherCatV1.02B3,2013-10-07 10:01:00,
2013-10-07 03:06:00,51.4,27.9,29.59,East,83,0.0,2.0,40,0.00,,,0.00,0,WeatherCatV1.02B3,2013-10-07 10:06:00,
2013-10-07 03:11:00,51.4,28.5,29.59,East,83,0.0,1.0,41,0.00,,,0.00,0,WeatherCatV1.02B3,2013-10-07 10:11:00,
2013-10-07 03:16:00,51.4,28.5,29.59,East,83,0.0,0.0,41,0.00,,,0.00,0,WeatherCatV1.02B3,2013-10-07 10:16:00,
2013-10-07 03:21:00,51.5,29.2,29.59,East,83,0.0,0.0,42,0.00,,,0.00,0,WeatherCatV1.02B3,2013-10-07 10:21:00,
2013-10-07 03:26:00,51.5,28.6,29.59,East,83,0.0,0.0,41,0.00,,,0.00,0,WeatherCatV1.02B3,2013-10-07 10:26:00,
2013-10-07 03:31:00,51.4,28.5,29.59,East,83,0.0,1.0,41,0.00,,,0.00,0,WeatherCatV1.02B3,2013-10-07 10:31:00,
2013-10-07 03:36:00,51.4,29.7,29.59,East,83,0.0,0.0,43,0.00,,,0.00,0,WeatherCatV1.02B3,2013-10-07 10:36:00,
2013-10-07 03:41:00,51.3,29.0,29.59,East,83,0.0,0.0,42,0.00,,,0.00,0,WeatherCatV1.02B3,2013-10-07 10:41:00,
2013-10-07 03:46:00,51.3,29.0,29.59,East,83,0.0,0.0,42,0.00,,,0.00,0,WeatherCatV1.02B3,2013-10-07 10:46:00,
2013-10-07 03:51:00,51.3,29.0,29.59,East,83,0.0,0.0,42,0.00,,,0.00,0,WeatherCatV1.02B3,2013-10-07 10:51:00,
2013-10-07 03:56:00,51.3,28.4,29.59,East,83,0.0,0.0,41,0.00,,,0.00,0,WeatherCatV1.02B3,2013-10-07 10:56:00,
2013-10-07 04:01:00,51.2,28.3,29.59,East,83,0.0,0.0,41,0.00,,,0.00,0,WeatherCatV1.02B3,2013-10-07 11:01:00,
2013-10-07 04:06:00,51.0,28.1,29.59,East,83,0.0,0.0,41,0.00,,,0.00,0,WeatherCatV1.02B3,2013-10-07 11:06:00,
2013-10-07 04:11:00,50.9,27.4,29.59,East,83,0.0,0.0,40,0.00,,,0.00,0,WeatherCatV1.02B3,2013-10-07 11:11:00,
2013-10-07 04:16:00,50.7,27.3,29.59,East,83,0.0,0.0,40,0.00,,,0.00,0,WeatherCatV1.02B3,2013-10-07 11:16:00,
2013-10-07 04:21:00,50.5,27.1,29.59,East,83,0.0,0.0,40,0.00,,,0.00,0,WeatherCatV1.02B3,2013-10-07 11:21:00,
2013-10-07 04:26:00,50.3,27.5,29.59,East,83,0.0,0.0,41,0.00,,,0.00,0,WeatherCatV1.02B3,2013-10-07 11:26:00,
2013-10-07 04:31:00,50.1,27.3,29.59,East,83,0.0,0.0,41,0.00,,,0.00,0,WeatherCatV1.02B3,2013-10-07 11:31:00,
2013-10-07 04:36:00,50.0,27.2,29.59,East,83,0.0,0.0,41,0.00,,,0.00,0,WeatherCatV1.02B3,2013-10-07 11:36:00,
2013-10-07 04:41:00,49.9,27.1,29.59,East,83,0.0,0.0,41,0.00,,,0.00,0,WeatherCatV1.02B3,2013-10-07 11:41:00,
2013-10-07 04:46:00,49.8,27.1,29.59,East,83,0.0,0.0,41,0.00,,,0.00,0,WeatherCatV1.02B3,2013-10-07 11:46:00,
2013-10-07 04:51:00,49.8,27.1,29.59,East,83,0.0,0.0,41,0.00,,,0.00,0,WeatherCatV1.02B3,2013-10-07 11:51:00,
2013-10-07 04:56:00,49.7,27.0,29.59,East,83,0.0,0.0,41,0.00,,,0.00,0,WeatherCatV1.02B3,2013-10-07 11:56:00,
2013-10-07 05:01:00,49.6,28.0,29.59,East,83,0.0,0.0,43,0.00,,,0.00,0,WeatherCatV1.02B3,2013-10-07 12:01:00,
2013-10-07 05:06:00,49.4,27.3,29.59,East,83,0.0,0.0,42,0.00,,,0.00,0,WeatherCatV1.02B3,2013-10-07 12:06:00,
2013-10-07 05:11:00,49.3,27.8,29.59,East,83,0.0,0.0,43,0.00,,,0.00,0,WeatherCatV1.02B3,2013-10-07 12:11:00,
2013-10-07 05:16:00,49.2,27.7,29.59,East,83,0.0,1.0,43,0.00,,,0.00,0,WeatherCatV1.02B3,2013-10-07 12:16:00,
2013-10-07 05:21:00,49.0,27.5,29.59,East,83,0.0,0.0,43,0.00,,,0.00,0,WeatherCatV1.02B3,2013-10-07 12:21:00,
2013-10-07 05:26:00,48.8,27.9,29.59,East,83,0.0,0.0,44,0.00,,,0.00,0,WeatherCatV1.02B3,2013-10-07 12:26:00,
2013-10-07 05:31:00,48.9,26.8,29.59,North,5,4.0,4.0,42,0.00,,,0.00,0,WeatherCatV1.02B3,2013-10-07 12:31:00,
2013-10-07 05:36:00,49.7,26.4,29.59,NE,53,1.0,4.0,40,0.00,,,0.00,0,WeatherCatV1.02B3,2013-10-07 12:36:00,
2013-10-07 05:41:00,50.2,27.4,29.59,NE,42,2.0,4.0,41,0.00,,,0.00,0,WeatherCatV1.02B3,2013-10-07 12:41:00,
2013-10-07 05:46:00,50.6,27.8,29.59,NE,39,0.0,2.0,41,0.00,,,0.00,0,WeatherCatV1.02B3,2013-10-07 12:46:00,
2013-10-07 05:51:00,50.7,27.3,29.59,North,10,1.0,2.0,40,0.00,,,0.00,0,WeatherCatV1.02B3,2013-10-07 12:51:00,
2013-10-07 05:56:00,50.7,27.3,29.59,ENE,69,0.0,1.0,40,0.00,,,0.00,0,WeatherCatV1.02B3,2013-10-07 12:56:00,
2013-10-07 06:01:00,50.6,27.2,29.59,NE,51,1.0,2.0,40,0.00,,,0.00,0,WeatherCatV1.02B3,2013-10-07 13:01:00,
2013-10-07 06:06:00,50.6,27.2,29.59,ENE,61,0.0,2.0,40,0.00,,,0.00,0,WeatherCatV1.02B3,2013-10-07 13:06:00,
2013-10-07 06:11:00,50.6,27.2,29.59,ENE,61,0.0,1.0,40,0.00,,,0.00,0,WeatherCatV1.02B3,2013-10-07 13:11:00,
2013-10-07 06:16:00,50.4,27.0,29.59,ENE,61,0.0,1.0,40,0.00,,,0.00,0,WeatherCatV1.02B3,2013-10-07 13:16:00,
2013-10-07 06:21:00,50.0,26.6,29.59,ENE,61,0.0,0.0,40,0.00,,,0.00,0,WeatherCatV1.02B3,2013-10-07 13:21:00,
2013-10-07 06:26:00,49.8,27.6,29.59,ENE,61,0.0,0.0,42,0.00,,,0.00,0,WeatherCatV1.02B3,2013-10-07 13:26:00,
2013-10-07 06:31:00,49.4,27.3,29.59,ENE,61,0.0,0.0,42,0.00,,,0.00,0,WeatherCatV1.02B3,2013-10-07 13:31:00,
2013-10-07 06:36:00,49.2,27.1,29.59,ENE,61,0.0,1.0,42,0.00,,,0.00,0,WeatherCatV1.02B3,2013-10-07 13:36:00,
2013-10-07 06:41:00,48.8,26.7,29.59,ENE,61,0.0,0.0,42,0.00,,,0.00,0,WeatherCatV1.02B3,2013-10-07 13:41:00,
2013-10-07 06:46:00,48.5,27.0,29.59,ENE,61,0.0,0.0,43,0.00,,,0.00,0,WeatherCatV1.02B3,2013-10-07 13:46:00,
2013-10-07 06:51:00,48.4,26.9,29.59,ENE,61,0.0,0.0,43,0.00,,,0.00,0,WeatherCatV1.02B3,2013-10-07 13:51:00,
2013-10-07 06:56:00,48.4,27.5,29.59,ENE,61,0.0,1.0,44,0.00,,,0.00,0,WeatherCatV1.02B3,2013-10-07 13:56:00,
2013-10-07 07:01:00,48.4,29.6,29.59,ENE,61,0.0,1.0,48,0.00,,,0.00,0,WeatherCatV1.02B3,2013-10-07 14:01:00,
2013-10-07 07:06:00,48.4,28.0,29.59,NNE,15,0.0,2.0,45,0.00,,,0.00,7,WeatherCatV1.02B3,2013-10-07 14:06:00,
2013-10-07 07:11:00,48.5,27.6,29.59,NNE,15,0.0,1.0,44,0.00,,,0.00,12,WeatherCatV1.02B3,2013-10-07 14:11:00,
2013-10-07 07:16:00,48.7,29.9,29.59,NNE,15,0.0,1.0,48,0.00,,,0.00,14,WeatherCatV1.02B3,2013-10-07 14:16:00,
2013-10-07 07:21:00,48.7,28.9,29.59,NNE,15,0.0,0.0,46,0.00,,,0.00,16,WeatherCatV1.02B3,2013-10-07 14:21:00,
2013-10-07 07:26:00,48.7,28.3,29.59,NNE,15,0.0,1.0,45,0.00,,,0.00,18,WeatherCatV1.02B3,2013-10-07 14:26:00,
2013-10-07 07:31:00,48.6,27.7,29.59,NNE,15,1.0,1.0,44,0.00,,,0.00,25,WeatherCatV1.02B3,2013-10-07 14:31:00,
2013-10-07 07:36:00,48.5,28.7,29.59,NNE,15,0.0,0.0,46,0.00,,,0.00,37,WeatherCatV1.02B3,2013-10-07 14:36:00,
2013-10-07 07:41:00,48.5,28.1,29.59,NNE,15,0.0,0.0,45,0.00,,,0.00,49,WeatherCatV1.02B3,2013-10-07 14:41:00,
2013-10-07 07:46:00,48.5,29.2,29.59,ENE,65,1.0,1.0,47,0.00,,,0.00,56,WeatherCatV1.02B3,2013-10-07 14:46:00,
2013-10-07 07:51:00,48.8,28.9,29.59,North,5,2.0,4.0,46,0.00,,,0.00,62,WeatherCatV1.02B3,2013-10-07 14:51:00,
2013-10-07 07:56:00,49.4,28.4,29.59,NE,48,0.0,1.0,44,0.00,,,0.00,69,WeatherCatV1.02B3,2013-10-07 14:56:00,
2013-10-07 08:01:00,49.6,29.1,29.59,NE,48,0.0,1.0,45,0.00,,,0.00,67,WeatherCatV1.02B3,2013-10-07 15:01:00,
2013-10-07 08:06:00,49.9,28.9,29.59,NE,48,0.0,0.0,44,0.00,,,0.00,67,WeatherCatV1.02B3,2013-10-07 15:06:00,
2013-10-07 08:11:00,50.2,29.7,29.59,NE,49,0.0,0.0,45,0.00,,,0.00,105,WeatherCatV1.02B3,2013-10-07 15:11:00,
2013-10-07 08:16:00,50.5,30.0,29.59,NE,49,0.0,1.0,45,0.00,,,0.00,74,WeatherCatV1.02B3,2013-10-07 15:16:00,
2013-10-07 08:21:00,50.9,30.3,29.59,NNE,19,0.0,2.0,45,0.00,,,0.00,98,WeatherCatV1.02B3,2013-10-07 15:21:00,
2013-10-07 08:26:00,51.5,30.3,29.59,NE,43,1.0,3.0,44,0.00,,,0.00,65,WeatherCatV1.02B3,2013-10-07 15:26:00,
2013-10-07 08:31:00,52.1,30.3,29.59,NNE,28,0.0,2.0,43,0.00,,,0.00,67,WeatherCatV1.02B3,2013-10-07 15:31:00,
2013-10-07 08:36:00,52.5,30.1,29.59,ENE,57,0.0,2.0,42,0.00,,,0.00,174,WeatherCatV1.02B3,2013-10-07 15:36:00,
2013-10-07 08:41:00,52.9,30.4,29.59,SE,129,0.0,0.0,42,0.00,,,0.00,197,WeatherCatV1.02B3,2013-10-07 15:41:00,
2013-10-07 08:47:00,53.4,30.9,29.59,South,172,0.0,2.0,42,0.00,,,0.00,98,WeatherCatV1.02B3,2013-10-07 15:47:00,
2013-10-07 08:51:00,54.0,30.8,29.59,South,169,0.0,1.0,41,0.00,,,0.00,83,WeatherCatV1.02B3,2013-10-07 15:51:00,
2013-10-07 08:56:00,54.6,32.0,29.59,South,178,0.0,1.0,42,0.00,,,0.00,308,WeatherCatV1.02B3,2013-10-07 15:56:00,
2013-10-07 09:01:00,55.3,32.6,29.59,South,178,0.0,0.0,42,0.00,,,0.00,396,WeatherCatV1.02B3,2013-10-07 16:01:00,
2013-10-07 09:06:00,56.0,30.8,29.59,South,179,0.0,0.0,38,0.00,,,0.00,381,WeatherCatV1.02B3,2013-10-07 16:06:00,
2013-10-07 09:11:00,57.2,32.5,29.59,South,178,0.0,1.0,39,0.00,,,0.00,436,WeatherCatV1.02B3,2013-10-07 16:11:00,
2013-10-07 09:17:00,58.9,32.0,29.59,South,174,0.0,0.0,36,0.00,,,0.00,223,WeatherCatV1.02B3,2013-10-07 16:17:00,
2013-10-07 09:21:00,59.8,32.1,29.59,South,173,0.0,0.0,35,0.00,,,0.00,176,WeatherCatV1.02B3,2013-10-07 16:21:00,
2013-10-07 09:27:00,60.4,31.9,29.59,South,173,0.0,0.0,34,0.00,,,0.00,330,WeatherCatV1.02B3,2013-10-07 16:27:00,
2013-10-07 09:32:00,61.4,32.0,29.59,South,173,0.0,2.0,33,0.00,,,0.00,397,WeatherCatV1.02B3,2013-10-07 16:32:00,
2013-10-07 09:37:00,62.6,31.5,29.59,South,172,0.0,0.0,31,0.00,,,0.00,287,WeatherCatV1.02B3,2013-10-07 16:37:00,
2013-10-07 09:42:00,63.7,30.8,29.59,South,172,0.0,1.0,29,0.00,,,0.00,359,WeatherCatV1.02B3,2013-10-07 16:42:00,
2013-10-07 09:47:00,64.7,32.5,29.59,South,171,1.0,1.0,30,0.00,,,0.00,610,WeatherCatV1.02B3,2013-10-07 16:47:00,
2013-10-07 09:52:00,65.6,31.6,29.59,SSE,161,0.0,0.0,28,0.00,,,0.00,211,WeatherCatV1.02B3,2013-10-07 16:52:00,
2013-10-07 09:57:00,66.5,31.5,29.59,SSE,160,0.0,0.0,27,0.00,,,0.00,369,WeatherCatV1.02B3,2013-10-07 16:57:00,
2013-10-07 10:02:00,67.3,30.3,29.59,SSE,160,0.0,1.0,25,0.00,,,0.00,369,WeatherCatV1.02B3,2013-10-07 17:02:00,
2013-10-07 10:07:00,68.2,29.0,29.59,SSE,167,0.0,0.0,23,0.00,,,0.00,577,WeatherCatV1.02B3,2013-10-07 17:07:00,
2013-10-07 10:12:00,69.4,28.9,29.59,SE,134,1.0,1.0,22,0.00,,,0.00,578,WeatherCatV1.02B3,2013-10-07 17:12:00,
2013-10-07 10:17:00,70.9,29.0,29.59,SE,142,1.0,1.0,21,0.00,,,0.00,585,WeatherCatV1.02B3,2013-10-07 17:17:00,
2013-10-07 10:22:00,72.5,27.9,29.59,SE,137,0.0,1.0,19,0.00,,,0.00,599,WeatherCatV1.02B3,2013-10-07 17:22:00,
2013-10-07 10:27:00,74.3,29.4,29.59,ESE,115,0.0,1.0,19,0.00,,,0.00,612,WeatherCatV1.02B3,2013-10-07 17:27:00,
2013-10-07 10:32:00,75.8,27.9,29.59,WNW,302,1.0,4.0,17,0.00,,,0.00,631,WeatherCatV1.02B3,2013-10-07 17:32:00,
2013-10-07 10:37:00,76.9,27.3,29.59,West,281,0.0,4.0,16,0.00,,,0.00,643,WeatherCatV1.02B3,2013-10-07 17:37:00,
2013-10-07 10:41:00,78.0,28.2,29.59,WNW,288,1.0,3.0,16,0.00,,,0.00,652,WeatherCatV1.02B3,2013-10-07 17:41:00,
2013-10-07 10:47:00,78.8,25.6,29.59,WSW,248,4.0,4.0,14,0.00,,,0.00,664,WeatherCatV1.02B3,2013-10-07 17:47:00,
2013-10-07 10:52:00,79.6,24.4,29.59,West,267,5.0,6.0,13,0.00,,,0.00,679,WeatherCatV1.02B3,2013-10-07 17:52:00,
2013-10-07 10:57:00,80.4,23.1,29.59,West,259,1.0,3.0,12,0.00,,,0.00,698,WeatherCatV1.02B3,2013-10-07 17:57:00,
2013-10-07 11:02:00,81.0,23.6,29.59,SSW,197,0.0,2.0,12,0.00,,,0.00,714,WeatherCatV1.02B3,2013-10-07 18:02:00,
2013-10-07 11:07:00,81.6,24.1,29.59,NW,315,2.0,3.0,12,0.00,,,0.00,775,WeatherCatV1.02B3,2013-10-07 18:07:00,
2013-10-07 11:12:00,82.1,22.4,29.59,West,277,1.0,4.0,11,0.00,,,0.00,777,WeatherCatV1.02B3,2013-10-07 18:12:00,
2013-10-07 11:17:00,82.5,24.8,29.59,NW,306,2.0,4.0,12,0.00,,,0.00,858,WeatherCatV1.02B3,2013-10-07 18:17:00,
2013-10-07 11:22:00,83.3,23.3,29.59,ENE,61,0.0,5.0,11,0.00,,,0.00,264,WeatherCatV1.02B3,2013-10-07 18:22:00,
2013-10-07 11:27:00,83.7,27.6,29.59,WNW,298,4.0,5.0,13,0.00,,,0.00,244,WeatherCatV1.02B3,2013-10-07 18:27:00,
2013-10-07 11:32:00,83.6,32.6,29.59,WNW,291,0.0,2.0,16,0.00,,,0.00,229,WeatherCatV1.02B3,2013-10-07 18:32:00,
2013-10-07 11:37:00,83.2,39.2,29.59,North,350,0.0,3.0,21,0.00,,,0.00,185,WeatherCatV1.02B3,2013-10-07 18:37:00,
2013-10-07 11:42:00,83.1,41.4,29.59,North,355,0.0,1.0,23,0.00,,,0.00,807,WeatherCatV1.02B3,2013-10-07 18:42:00,
2013-10-07 11:47:00,83.6,40.7,29.59,NW,323,1.0,1.0,22,0.00,,,0.00,766,WeatherCatV1.02B3,2013-10-07 18:47:00,
2013-10-07 11:52:00,84.6,36.4,29.59,NE,47,0.0,3.0,18,0.00,,,0.00,747,WeatherCatV1.02B3,2013-10-07 18:52:00,
2013-10-07 11:57:00,85.5,34.2,29.59,ENE,67,2.0,4.0,16,0.00,,,0.00,745,WeatherCatV1.02B3,2013-10-07 18:57:00,
2013-10-07 12:02:00,85.9,34.5,29.59,East,85,0.0,5.0,16,0.00,,,0.00,744,WeatherCatV1.02B3,2013-10-07 19:02:00,
2013-10-07 12:07:00,86.7,35.1,29.59,SSW,213,0.0,2.0,16,0.00,,,0.00,747,WeatherCatV1.02B3,2013-10-07 19:07:00,
2013-10-07 12:12:00,87.5,34.1,29.59,West,275,1.0,3.0,15,0.00,,,0.00,747,WeatherCatV1.02B3,2013-10-07 19:12:00,
2013-10-07 12:17:00,87.7,28.8,29.59,East,90,1.0,5.0,12,0.00,,,0.00,747,WeatherCatV1.02B3,2013-10-07 19:17:00,
2013-10-07 12:22:00,88.1,31.1,29.59,East,84,3.0,3.0,13,0.00,,,0.00,754,WeatherCatV1.02B3,2013-10-07 19:22:00,
2013-10-07 12:27:00,88.3,31.2,29.59,East,82,0.0,1.0,13,0.00,,,0.00,752,WeatherCatV1.02B3,2013-10-07 19:27:00,
2013-10-07 12:32:00,88.7,29.5,29.59,WSW,240,2.0,3.0,12,0.00,,,0.00,756,WeatherCatV1.02B3,2013-10-07 19:32:00,
2013-10-07 12:37:00,89.0,35.3,29.59,NE,46,3.0,4.0,15,0.00,,,0.00,756,WeatherCatV1.02B3,2013-10-07 19:37:00,
2013-10-07 12:42:00,89.0,29.8,29.59,ENE,76,0.0,3.0,12,0.00,,,0.00,756,WeatherCatV1.02B3,2013-10-07 19:42:00,
2013-10-07 12:47:00,89.1,29.9,29.59,ENE,57,0.0,3.0,12,0.00,,,0.00,758,WeatherCatV1.02B3,2013-10-07 19:47:00,
2013-10-07 12:52:00,88.9,31.7,29.59,SE,146,1.0,3.0,13,0.00,,,0.00,756,WeatherCatV1.02B3,2013-10-07 19:52:00,
2013-10-07 12:57:00,88.7,31.5,29.59,NE,42,2.0,5.0,13,0.00,,,0.00,754,WeatherCatV1.02B3,2013-10-07 19:57:00,
2013-10-07 13:02:00,88.4,29.3,29.59,East,86,2.0,2.0,12,0.00,,,0.00,751,WeatherCatV1.02B3,2013-10-07 20:02:00,
2013-10-07 13:07:00,88.5,31.4,29.59,East,81,1.0,1.0,13,0.00,,,0.00,749,WeatherCatV1.02B3,2013-10-07 20:07:00,
2013-10-07 13:12:00,89.0,27.7,29.59,WSW,239,0.0,2.0,11,0.00,,,0.00,749,WeatherCatV1.02B3,2013-10-07 20:12:00,
2013-10-07 13:17:00,89.3,30.0,29.59,NNE,21,2.0,2.0,12,0.00,,,0.00,745,WeatherCatV1.02B3,2013-10-07 20:17:00,
2013-10-07 13:22:00,88.9,27.6,29.59,ENE,71,1.0,1.0,11,0.00,,,0.00,742,WeatherCatV1.02B3,2013-10-07 20:22:00,
2013-10-07 13:27:00,87.9,28.9,29.59,NE,49,2.0,5.0,12,0.00,,,0.00,738,WeatherCatV1.02B3,2013-10-07 20:27:00,
2013-10-07 13:32:00,87.3,28.5,29.59,ESE,107,4.0,5.0,12,0.00,,,0.00,735,WeatherCatV1.02B3,2013-10-07 20:32:00,
2013-10-07 13:37:00,87.3,32.3,29.59,ENE,78,4.0,6.0,14,0.00,,,0.00,731,WeatherCatV1.02B3,2013-10-07 20:37:00,
2013-10-07 13:42:00,87.6,30.7,29.59,ESE,118,4.0,5.0,13,0.00,,,0.00,722,WeatherCatV1.02B3,2013-10-07 20:42:00,
2013-10-07 13:47:00,87.6,34.2,29.59,ENE,69,1.0,5.0,15,0.00,,,0.00,717,WeatherCatV1.02B3,2013-10-07 20:47:00,
2013-10-07 13:52:00,87.7,34.3,29.59,NE,44,4.0,4.0,15,0.00,,,0.00,715,WeatherCatV1.02B3,2013-10-07 20:52:00,
2013-10-07 13:57:00,87.7,34.3,29.59,East,86,1.0,3.0,15,0.00,,,0.00,710,WeatherCatV1.02B3,2013-10-07 20:57:00,
2013-10-07 14:02:00,88.1,34.6,29.59,NNE,17,1.0,2.0,15,0.00,,,0.00,705,WeatherCatV1.02B3,2013-10-07 21:02:00,
2013-10-07 14:07:00,88.2,33.0,29.59,ENE,75,1.0,9.0,14,0.00,,,0.00,698,WeatherCatV1.02B3,2013-10-07 21:07:00,
2013-10-07 14:12:00,87.5,34.1,29.59,ESE,123,2.0,3.0,15,0.00,,,0.00,691,WeatherCatV1.02B3,2013-10-07 21:12:00,
2013-10-07 14:17:00,87.3,34.0,29.59,NE,49,3.0,5.0,15,0.00,,,0.00,682,WeatherCatV1.02B3,2013-10-07 21:17:00,
2013-10-07 14:22:00,87.2,33.9,29.59,ENE,75,3.0,5.0,15,0.00,,,0.00,675,WeatherCatV1.02B3,2013-10-07 21:22:00,
2013-10-07 14:27:00,86.6,35.0,29.59,NE,55,3.0,4.0,16,0.00,,,0.00,664,WeatherCatV1.02B3,2013-10-07 21:27:00,
2013-10-07 14:32:00,86.4,33.3,29.59,West,273,1.0,4.0,15,0.00,,,0.00,656,WeatherCatV1.02B3,2013-10-07 21:32:00,
2013-10-07 14:37:00,86.5,31.6,29.59,NE,49,0.0,3.0,14,0.00,,,0.00,647,WeatherCatV1.02B3,2013-10-07 21:37:00,
2013-10-07 14:42:00,87.0,28.2,29.59,ENE,61,2.0,2.0,12,0.00,,,0.00,636,WeatherCatV1.02B3,2013-10-07 21:42:00,
2013-10-07 14:47:00,87.0,30.2,29.59,East,89,5.0,5.0,13,0.00,,,0.00,624,WeatherCatV1.02B3,2013-10-07 21:47:00,
2013-10-07 14:52:00,86.9,31.9,29.59,South,185,0.0,2.0,14,0.00,,,0.00,615,WeatherCatV1.02B3,2013-10-07 21:52:00,
2013-10-07 14:57:00,87.2,35.5,29.59,East,94,2.0,4.0,16,0.00,,,0.00,603,WeatherCatV1.02B3,2013-10-07 21:57:00,
2013-10-07 15:02:00,86.6,36.6,29.59,East,90,0.0,5.0,17,0.00,,,0.00,592,WeatherCatV1.02B3,2013-10-07 22:02:00,
2013-10-07 15:07:00,86.7,38.1,29.59,East,98,1.0,3.0,18,0.00,,,0.00,580,WeatherCatV1.02B3,2013-10-07 22:07:00,
2013-10-07 15:12:00,86.6,38.0,29.59,ESE,105,7.0,7.0,18,0.00,,,0.00,571,WeatherCatV1.02B3,2013-10-07 22:12:00,
2013-10-07 15:17:00,86.4,39.2,29.59,East,82,0.0,4.0,19,0.00,,,0.00,559,WeatherCatV1.02B3,2013-10-07 22:17:00,
2013-10-07 15:22:00,86.4,40.6,29.59,NE,53,0.0,3.0,20,0.00,,,0.00,541,WeatherCatV1.02B3,2013-10-07 22:22:00,
2013-10-07 15:27:00,86.2,40.4,29.59,East,79,2.0,5.0,20,0.00,,,0.00,533,WeatherCatV1.02B3,2013-10-07 22:27:00,
2013-10-07 15:32:00,85.6,39.9,29.59,ESE,111,0.0,3.0,20,0.00,,,0.00,517,WeatherCatV1.02B3,2013-10-07 22:32:00,
2013-10-07 15:37:00,85.5,41.1,29.59,NE,41,1.0,3.0,21,0.00,,,0.00,499,WeatherCatV1.02B3,2013-10-07 22:37:00,
2013-10-07 15:42:00,85.3,40.9,29.59,NE,46,0.0,3.0,21,0.00,,,0.00,489,WeatherCatV1.02B3,2013-10-07 22:42:00,
2013-10-07 15:47:00,85.3,42.1,29.59,East,83,1.0,3.0,22,0.00,,,0.00,478,WeatherCatV1.02B3,2013-10-07 22:47:00,
2013-10-07 15:52:00,85.5,44.6,29.59,WNW,284,1.0,3.0,24,0.00,,,0.00,466,WeatherCatV1.02B3,2013-10-07 22:52:00,
2013-10-07 15:57:00,85.6,43.5,29.59,North,5,1.0,4.0,23,0.00,,,0.00,450,WeatherCatV1.02B3,2013-10-07 22:57:00,
2013-10-07 16:02:00,85.3,42.1,29.59,East,100,1.0,3.0,22,0.00,,,0.00,445,WeatherCatV1.02B3,2013-10-07 23:02:00,
2013-10-07 16:07:00,85.1,43.1,29.59,ENE,78,2.0,3.0,23,0.00,,,0.00,422,WeatherCatV1.02B3,2013-10-07 23:07:00,
2013-10-07 16:12:00,85.2,42.0,29.59,ENE,63,3.0,3.0,22,0.00,,,0.00,408,WeatherCatV1.02B3,2013-10-07 23:12:00,
2013-10-07 16:17:00,84.5,42.6,29.59,West,259,0.0,6.0,23,0.00,,,0.00,394,WeatherCatV1.02B3,2013-10-07 23:17:00,
2013-10-07 16:22:00,84.0,43.3,29.59,East,86,1.0,5.0,24,0.00,,,0.00,378,WeatherCatV1.02B3,2013-10-07 23:22:00,
2013-10-07 16:27:00,83.9,44.3,29.59,WSW,252,4.0,4.0,25,0.00,,,0.00,364,WeatherCatV1.02B3,2013-10-07 23:27:00,
2013-10-07 16:32:00,84.1,44.5,29.59,ENE,59,0.0,2.0,25,0.00,,,0.00,348,WeatherCatV1.02B3,2013-10-07 23:32:00,
2013-10-07 16:37:00,83.8,45.2,29.59,NW,306,1.0,3.0,26,0.00,,,0.00,330,WeatherCatV1.02B3,2013-10-07 23:37:00,
2013-10-07 16:42:00,83.6,47.0,29.59,WNW,297,2.0,3.0,28,0.00,,,0.00,316,WeatherCatV1.02B3,2013-10-07 23:42:00,
2013-10-07 16:47:00,82.9,50.0,29.59,West,275,1.0,4.0,32,0.00,,,0.00,301,WeatherCatV1.02B3,2013-10-07 23:47:00,
2013-10-07 16:52:00,81.9,49.1,29.59,WNW,294,4.0,6.0,32,0.00,,,0.00,285,WeatherCatV1.02B3,2013-10-07 23:52:00,
2013-10-07 16:57:00,80.8,48.2,29.59,West,268,1.0,3.0,32,0.00,,,0.00,137,WeatherCatV1.02B3,2013-10-07 23:57:00,
2013-10-07 17:02:00,79.9,48.2,29.59,West,273,2.0,4.0,33,0.00,,,0.00,62,WeatherCatV1.02B3,2013-10-08 00:02:00,
2013-10-07 17:07:00,79.2,48.4,29.59,WNW,292,3.0,4.0,34,0.00,,,0.00,72,WeatherCatV1.02B3,2013-10-08 00:07:00,
2013-10-07 17:12:00,78.5,49.3,29.59,WSW,250,5.0,6.0,36,0.00,,,0.00,30,WeatherCatV1.02B3,2013-10-08 00:12:00,
2013-10-07 17:17:00,77.9,50.2,29.59,West,260,5.0,5.0,38,0.00,,,0.00,30,WeatherCatV1.02B3,2013-10-08 00:17:00,
2013-10-07 17:22:00,77.2,51.7,29.59,West,281,2.0,6.0,41,0.00,,,0.00,90,WeatherCatV1.02B3,2013-10-08 00:22:00,
2013-10-07 17:27:00,76.5,52.3,29.59,WNW,283,3.0,3.0,43,0.00,,,0.00,153,WeatherCatV1.02B3,2013-10-08 00:27:00,
2013-10-07 17:32:00,76.0,52.5,29.59,WNW,286,2.0,6.0,44,0.00,,,0.00,127,WeatherCatV1.02B3,2013-10-08 00:32:00,
2013-10-07 17:37:00,75.5,52.7,29.59,WNW,284,4.0,4.0,45,0.00,,,0.00,98,WeatherCatV1.02B3,2013-10-08 00:37:00,
2013-10-07 17:42:00,74.7,53.1,29.59,West,279,4.0,6.0,47,0.00,,,0.00,65,WeatherCatV1.02B3,2013-10-08 00:42:00,
2013-10-07 17:47:00,73.9,53.5,29.59,West,267,1.0,5.0,49,0.00,,,0.00,62,WeatherCatV1.02B3,2013-10-08 00:47:00,
2013-10-07 17:52:00,73.1,53.9,29.59,West,262,3.0,5.0,51,0.00,,,0.00,21,WeatherCatV1.02B3,2013-10-08 00:52:00,
2013-10-07 17:57:00,72.0,53.4,29.59,West,277,4.0,6.0,52,0.00,,,0.00,19,WeatherCatV1.02B3,2013-10-08 00:57:00,
2013-10-07 18:02:00,71.0,53.0,29.59,West,270,1.0,6.0,53,0.00,,,0.00,16,WeatherCatV1.02B3,2013-10-08 01:02:00,
2013-10-07 18:07:00,70.4,52.9,29.59,SW,236,2.0,3.0,54,0.00,,,0.00,14,WeatherCatV1.02B3,2013-10-08 01:07:00,
2013-10-07 18:12:00,69.9,53.5,29.59,WSW,254,3.0,4.0,56,0.00,,,0.00,12,WeatherCatV1.02B3,2013-10-08 01:12:00,
2013-10-07 18:17:00,69.0,53.6,29.59,West,275,1.0,4.0,58,0.00,,,0.00,11,WeatherCatV1.02B3,2013-10-08 01:17:00,
2013-10-07 18:22:00,68.1,53.7,29.59,West,281,1.0,5.0,60,0.00,,,0.00,9,WeatherCatV1.02B3,2013-10-08 01:22:00,
2013-10-07 18:27:00,67.5,53.6,29.59,WSW,254,1.0,2.0,61,0.00,,,0.00,7,WeatherCatV1.02B3,2013-10-08 01:27:00,
2013-10-07 18:32:00,67.2,53.7,29.59,NW,316,0.0,1.0,62,0.00,,,0.00,5,WeatherCatV1.02B3,2013-10-08 01:32:00,
2013-10-07 18:37:00,67.0,53.1,29.59,NW,316,0.0,0.0,61,0.00,,,0.00,0,WeatherCatV1.02B3,2013-10-08 01:37:00,
2013-10-07 18:42:00,66.8,52.9,29.59,NW,311,0.0,1.0,61,0.00,,,0.00,0,WeatherCatV1.02B3,2013-10-08 01:42:00,
2013-10-07 18:47:00,66.4,53.0,29.59,NW,310,0.0,1.0,62,0.00,,,0.00,0,WeatherCatV1.02B3,2013-10-08 01:47:00,
2013-10-07 18:52:00,66.2,52.8,29.59,NW,310,0.0,0.0,62,0.00,,,0.00,0,WeatherCatV1.02B3,2013-10-08 01:52:00,
2013-10-07 18:57:00,65.8,52.8,29.59,NW,310,0.0,1.0,63,0.00,,,0.00,0,WeatherCatV1.02B3,2013-10-08 01:57:00,
2013-10-07 19:02:00,65.4,52.0,29.59,NW,310,0.0,0.0,62,0.00,,,0.00,0,WeatherCatV1.02B3,2013-10-08 02:02:00,
2013-10-07 19:07:00,65.1,52.2,29.59,NW,310,0.0,0.0,63,0.00,,,0.00,0,WeatherCatV1.02B3,2013-10-08 02:07:00,
2013-10-07 19:12:00,64.7,52.2,29.59,NW,310,0.0,0.0,64,0.00,,,0.00,0,WeatherCatV1.02B3,2013-10-08 02:12:00,
2013-10-07 19:17:00,64.3,51.9,29.59,NW,310,0.0,0.0,64,0.00,,,0.00,0,WeatherCatV1.02B3,2013-10-08 02:17:00,
2013-10-07 19:22:00,63.9,51.9,29.59,NW,310,0.0,0.0,65,0.00,,,0.00,0,WeatherCatV1.02B3,2013-10-08 02:22:00,
2013-10-07 19:27:00,63.5,51.9,29.59,NW,310,0.0,0.0,66,0.00,,,0.00,0,WeatherCatV1.02B3,2013-10-08 02:27:00,
2013-10-07 19:32:00,63.1,52.0,29.59,NW,310,0.0,0.0,67,0.00,,,0.00,0,WeatherCatV1.02B3,2013-10-08 02:32:00,
2013-10-07 19:37:00,62.7,51.6,29.59,NW,310,0.0,0.0,67,0.00,,,0.00,0,WeatherCatV1.02B3,2013-10-08 02:37:00,
2013-10-07 19:42:00,62.2,51.5,29.59,NW,310,0.0,0.0,68,0.00,,,0.00,0,WeatherCatV1.02B3,2013-10-08 02:42:00,
2013-10-07 19:47:00,61.8,51.1,29.59,NW,310,0.0,0.0,68,0.00,,,0.00,0,WeatherCatV1.02B3,2013-10-08 02:47:00,
2013-10-07 19:52:00,61.4,51.1,29.59,NW,310,0.0,0.0,69,0.00,,,0.00,0,WeatherCatV1.02B3,2013-10-08 02:52:00,
2013-10-07 19:57:00,60.9,51.0,29.59,NNW,328,0.0,1.0,70,0.00,,,0.00,0,WeatherCatV1.02B3,2013-10-08 02:57:00,
2013-10-07 20:02:00,60.5,51.8,29.59,NNE,19,1.0,2.0,73,0.00,,,0.00,0,WeatherCatV1.02B3,2013-10-08 03:02:00,
2013-10-07 20:07:00,60.3,51.6,29.59,NNE,19,0.0,0.0,73,0.00,,,0.00,0,WeatherCatV1.02B3,2013-10-08 03:07:00,
2013-10-07 20:12:00,60.1,51.0,29.59,NNE,19,0.0,0.0,72,0.00,,,0.00,0,WeatherCatV1.02B3,2013-10-08 03:12:00,
2013-10-07 20:17:00,59.9,50.8,29.59,NNE,19,0.0,1.0,72,0.00,,,0.00,0,WeatherCatV1.02B3,2013-10-08 03:17:00,
2013-10-07 20:22:00,59.6,50.6,29.59,NNE,19,0.0,1.0,72,0.00,,,0.00,0,WeatherCatV1.02B3,2013-10-08 03:22:00,
2013-10-07 20:27:00,59.4,50.7,29.59,NE,42,0.0,1.0,73,0.00,,,0.00,0,WeatherCatV1.02B3,2013-10-08 03:27:00,
2013-10-07 20:32:00,59.1,50.5,29.59,NE,42,0.0,0.0,73,0.00,,,0.00,0,WeatherCatV1.02B3,2013-10-08 03:32:00,
2013-10-07 20:37:00,58.8,50.2,29.59,NE,42,0.0,0.0,73,0.00,,,0.00,0,WeatherCatV1.02B3,2013-10-08 03:37:00,
2013-10-07 20:42:00,58.6,49.6,29.59,NE,42,0.0,0.0,72,0.00,,,0.00,0,WeatherCatV1.02B3,2013-10-08 03:42:00,
2013-10-07 20:47:00,58.3,49.3,29.59,NE,42,0.0,0.0,72,0.00,,,0.00,0,WeatherCatV1.02B3,2013-10-08 03:47:00,
2013-10-07 20:52:00,58.0,49.0,29.59,NE,42,0.0,0.0,72,0.00,,,0.00,0,WeatherCatV1.02B3,2013-10-08 03:52:00,
2013-10-07 20:57:00,57.7,48.4,29.59,NE,42,0.0,0.0,71,0.00,,,0.00,0,WeatherCatV1.02B3,2013-10-08 03:57:00,
2013-10-07 21:01:00,57.5,48.2,29.59,NE,42,0.0,0.0,71,0.00,,,0.00,0,WeatherCatV1.02B3,2013-10-08 04:01:00,
2013-10-07 21:06:00,57.1,48.2,29.59,NE,42,0.0,0.0,72,0.00,,,0.00,0,WeatherCatV1.02B3,2013-10-08 04:06:00,
2013-10-07 21:11:00,56.6,47.7,29.59,NE,42,0.0,0.0,72,0.00,,,0.00,0,WeatherCatV1.02B3,2013-10-08 04:11:00,
2013-10-07 21:16:00,56.3,47.8,29.59,NE,42,0.0,0.0,73,0.00,,,0.00,0,WeatherCatV1.02B3,2013-10-08 04:16:00,
2013-10-07 21:21:00,56.0,47.5,29.59,NE,42,0.0,0.0,73,0.00,,,0.00,0,WeatherCatV1.02B3,2013-10-08 04:21:00,
2013-10-07 21:26:00,55.6,47.4,29.59,NE,42,0.0,0.0,74,0.00,,,0.00,0,WeatherCatV1.02B3,2013-10-08 04:26:00,
2013-10-07 21:31:00,55.3,47.2,29.59,NE,42,0.0,0.0,74,0.00,,,0.00,0,WeatherCatV1.02B3,2013-10-08 04:31:00,
2013-10-07 21:36:00,55.1,47.3,29.59,NE,42,0.0,0.0,75,0.00,,,0.00,0,WeatherCatV1.02B3,2013-10-08 04:36:00,
2013-10-07 21:41:00,54.9,47.1,29.59,NE,42,0.0,0.0,75,0.00,,,0.00,0,WeatherCatV1.02B3,2013-10-08 04:41:00,
2013-10-07 21:46:00,54.7,46.9,29.59,NE,42,0.0,0.0,75,0.00,,,0.00,0,WeatherCatV1.02B3,2013-10-08 04:46:00,
2013-10-07 21:51:00,54.6,47.2,29.59,NE,42,0.0,0.0,76,0.00,,,0.00,0,WeatherCatV1.02B3,2013-10-08 04:51:00,
2013-10-07 21:56:00,54.4,47.0,29.59,NE,42,0.0,0.0,76,0.00,,,0.00,0,WeatherCatV1.02B3,2013-10-08 04:56:00,
2013-10-07 22:01:00,54.2,46.8,29.59,NE,42,1.0,1.0,76,0.00,,,0.00,0,WeatherCatV1.02B3,2013-10-08 05:01:00,
2013-10-07 22:06:00,54.0,46.6,29.59,NE,42,0.0,1.0,76,0.00,,,0.00,0,WeatherCatV1.02B3,2013-10-08 05:06:00,
2013-10-07 22:11:00,53.9,46.5,29.59,NE,42,0.0,0.0,76,0.00,,,0.00,0,WeatherCatV1.02B3,2013-10-08 05:11:00,
2013-10-07 22:16:00,53.7,46.7,29.59,NE,42,0.0,0.0,77,0.00,,,0.00,0,WeatherCatV1.02B3,2013-10-08 05:16:00,
2013-10-07 22:21:00,53.5,46.5,29.59,NE,42,0.0,0.0,77,0.00,,,0.00,0,WeatherCatV1.02B3,2013-10-08 05:21:00,
2013-10-07 22:26:00,53.3,46.3,29.59,NE,42,0.0,0.0,77,0.00,,,0.00,0,WeatherCatV1.02B3,2013-10-08 05:26:00,
2013-10-07 22:31:00,53.1,46.1,29.59,NE,42,0.0,0.0,77,0.00,,,0.00,0,WeatherCatV1.02B3,2013-10-08 05:31:00,
2013-10-07 22:36:00,52.8,45.4,29.59,NE,42,0.0,0.0,76,0.00,,,0.00,0,WeatherCatV1.02B3,2013-10-08 05:36:00,
2013-10-07 22:41:00,52.6,45.6,29.59,NE,42,0.0,0.0,77,0.00,,,0.00,0,WeatherCatV1.02B3,2013-10-08 05:41:00,
2013-10-07 22:46:00,52.3,45.0,29.59,NE,42,0.0,0.0,76,0.00,,,0.00,0,WeatherCatV1.02B3,2013-10-08 05:46:00,
2013-10-07 22:51:00,52.1,45.1,29.59,NE,42,0.0,0.0,77,0.00,,,0.00,0,WeatherCatV1.02B3,2013-10-08 05:51:00,
2013-10-07 22:56:00,51.8,44.5,29.59,NE,42,0.0,1.0,76,0.00,,,0.00,0,WeatherCatV1.02B3,2013-10-08 05:56:00,
2013-10-07 23:01:00,51.7,44.4,29.59,NE,42,0.0,0.0,76,0.00,,,0.00,0,WeatherCatV1.02B3,2013-10-08 06:01:00,
2013-10-07 23:06:00,51.5,44.5,29.59,SSE,155,0.0,1.0,77,0.00,,,0.00,0,WeatherCatV1.02B3,2013-10-08 06:06:00,
2013-10-07 23:11:00,51.3,44.3,29.59,WNW,290,0.0,1.0,77,0.00,,,0.00,0,WeatherCatV1.02B3,2013-10-08 06:11:00,
2013-10-07 23:16:00,51.2,44.6,29.59,WNW,290,0.0,1.0,78,0.00,,,0.00,0,WeatherCatV1.02B3,2013-10-08 06:16:00,
2013-10-07 23:21:00,51.1,44.5,29.59,WNW,290,0.0,0.0,78,0.00,,,0.00,0,WeatherCatV1.02B3,2013-10-08 06:21:00,
2013-10-07 23:26:00,51.0,44.4,29.59,WNW,290,0.0,0.0,78,0.00,,,0.00,0,WeatherCatV1.02B3,2013-10-08 06:26:00,
2013-10-07 23:31:00,51.0,44.4,29.59,WNW,290,0.0,0.0,78,0.00,,,0.00,0,WeatherCatV1.02B3,2013-10-08 06:31:00,
2013-10-07 23:36:00,50.8,44.2,29.59,NNE,25,1.0,1.0,78,0.00,,,0.00,0,WeatherCatV1.02B3,2013-10-08 06:36:00,
2013-10-07 23:41:00,50.9,44.6,29.59,NE,51,1.0,2.0,79,0.00,,,0.00,0,WeatherCatV1.02B3,2013-10-08 06:41:00,
2013-10-07 23:46:00,51.0,44.7,29.59,NE,48,0.0,2.0,79,0.00,,,0.00,0,WeatherCatV1.02B3,2013-10-08 06:46:00,
2013-10-07 23:51:00,51.0,44.4,29.59,NE,48,0.0,0.0,78,0.00,,,0.00,0,WeatherCatV1.02B3,2013-10-08 06:51:00,
2013-10-07 23:57:00,50.8,43.9,29.59,NE,48,0.0,0.0,77,0.00,,,0.00,0,WeatherCatV1.02B3,2013-10-08 06:57:00,